Time;durP1;ratioP1;P1;durP2;ratioP2;P2;SDS_P1;SDS_P2;PMS_P1;PMS_P2;Temp;Humidity;BMP_temperature;BMP_pressure;BME280_temperature;BME280_humidity;BME280_pressure;Samples;Min_cycle;Max_cycle;Signal;HPM_P1;HPM_P2
2021/11/11 00:01:47;;;;;;;30.95;15.65;;;2.10;99.90;;;;;;5009788;28;20117;-69
2021/11/11 00:04:16;;;;;;;35.50;16.83;;;2.00;99.90;;;;;;5015488;28;20473;-68
2021/11/11 00:06:42;;;;;;;32.13;15.82;;;2.00;99.90;;;;;;5081974;28;20033;-69
2021/11/11 00:09:07;;;;;;;32.38;16.65;;;2.00;99.90;;;;;;5009381;28;20026;-69
2021/11/11 00:11:33;;;;;;;33.00;16.45;;;1.90;99.90;;;;;;5004035;28;20065;-69
2021/11/11 00:13:58;;;;;;;28.77;15.15;;;1.80;99.90;;;;;;4998887;28;20038;-69
2021/11/11 00:16:24;;;;;;;32.10;16.20;;;1.70;99.90;;;;;;5001855;28;20034;-69
2021/11/11 00:18:51;;;;;;;31.80;16.27;;;1.70;99.90;;;;;;5074418;28;20527;-69
2021/11/11 00:21:17;;;;;;;33.15;16.10;;;1.70;99.90;;;;;;5012518;28;20029;-69
2021/11/11 00:23:43;;;;;;;35.03;16.52;;;1.80;99.90;;;;;;5083404;28;20030;-69
2021/11/11 00:26:08;;;;;;;36.15;16.75;;;2.00;99.90;;;;;;5011360;28;20033;-69
2021/11/11 00:28:34;;;;;;;35.15;17.08;;;1.60;99.90;;;;;;5005749;28;20041;-69
2021/11/11 00:31:00;;;;;;;37.45;17.83;;;;;;;;;;5000077;28;20493;-69
2021/11/11 00:33:27;;;;;;;42.22;18.92;;;;;;;;;;5067539;28;20034;-69
2021/11/11 00:35:53;;;;;;;46.17;18.80;;;1.40;99.90;;;;;;5069083;28;20037;-69
2021/11/11 00:38:19;;;;;;;33.75;17.02;;;1.80;99.90;;;;;;5008115;28;20029;-69
2021/11/11 00:40:44;;;;;;;38.42;18.38;;;1.80;99.90;;;;;;5083517;28;20038;-69
2021/11/11 00:43:10;;;;;;;33.95;16.90;;;1.50;99.90;;;;;;5013747;28;20040;-69
2021/11/11 00:45:38;;;;;;;40.97;17.17;;;1.70;99.90;;;;;;5010362;28;20063;-69
2021/11/11 00:48:03;;;;;;;35.92;17.35;;;;;;;;;;5003603;28;20041;-70
2021/11/11 00:50:29;;;;;;;38.83;16.35;;;1.60;99.90;;;;;;5066235;28;20060;-69
2021/11/11 00:52:54;;;;;;;34.85;16.35;;;1.50;99.90;;;;;;5069763;28;20034;-70
2021/11/11 00:55:20;;;;;;;31.02;16.35;;;1.40;99.90;;;;;;5075283;28;20030;-70
2021/11/11 00:57:51;;;;;;;35.25;16.50;;;1.20;99.90;;;;;;5079330;28;20038;-69
2021/11/11 01:00:18;;;;;;;36.60;16.88;;;5.10;99.90;;;;;;5083561;28;20044;-69
2021/11/11 01:02:46;;;;;;;34.28;17.40;;;;;;;;;;5011357;28;20843;-69
2021/11/11 01:05:12;;;;;;;36.75;17.25;;;;;;;;;;5006542;28;20036;-69
2021/11/11 01:07:37;;;;;;;38.28;17.45;;;1.70;99.90;;;;;;5067405;28;20042;-69
2021/11/11 01:10:04;;;;;;;42.13;18.75;;;;;;;;;;4999405;28;20034;-69
2021/11/11 01:12:30;;;;;;;41.92;17.85;;;;;;;;;;5003536;28;20099;-69
2021/11/11 01:14:56;;;;;;;41.05;18.55;;;1.70;99.90;;;;;;5000868;28;20914;-69
2021/11/11 01:17:22;;;;;;;40.40;18.88;;;1.90;99.90;;;;;;5064395;28;20045;-69
2021/11/11 01:19:47;;;;;;;43.08;19.33;;;1.70;99.90;;;;;;4997267;28;20034;-69
2021/11/11 01:22:13;;;;;;;40.83;19.42;;;;;;;;;;5054758;28;20041;-69
2021/11/11 01:24:39;;;;;;;42.28;17.90;;;1.80;99.90;;;;;;5002207;28;20061;-69
2021/11/11 01:27:05;;;;;;;41.17;18.52;;;;;;;;;;4997107;28;20033;-69
2021/11/11 01:29:32;;;;;;;39.03;17.05;;;;;;;;;;5059720;28;20113;-69
2021/11/11 01:31:59;;;;;;;39.78;16.65;;;1.70;99.90;;;;;;5073160;28;20112;-69
2021/11/11 01:34:27;;;;;;;38.05;17.70;;;1.70;99.90;;;;;;5077875;28;20039;-69
2021/11/11 01:36:54;;;;;;;36.75;17.15;;;1.70;99.90;;;;;;5080197;28;20061;-69
2021/11/11 01:39:19;;;;;;;38.75;17.67;;;1.60;99.90;;;;;;5075173;28;20132;-69
2021/11/11 01:41:53;;;;;;;31.50;16.08;;;1.60;99.90;;;;;;5071443;28;20040;-69
2021/11/11 01:44:19;;;;;;;45.88;18.75;;;1.60;99.90;;;;;;5066243;28;20124;-69
2021/11/11 01:46:45;;;;;;;35.88;16.67;;;1.50;99.90;;;;;;5064563;28;20816;-69
2021/11/11 01:49:13;;;;;;;35.55;16.70;;;2.10;99.90;;;;;;5070087;28;20034;-69
2021/11/11 01:51:39;;;;;;;37.53;16.13;;;1.20;99.90;;;;;;5074254;28;20044;-69
2021/11/11 01:54:05;;;;;;;36.22;16.75;;;1.10;99.90;;;;;;5080056;28;20873;-69
2021/11/11 01:56:32;;;;;;;37.35;16.83;;;0.80;99.90;;;;;;5079631;28;20493;-69
2021/11/11 01:59:09;;;;;;;34.28;15.75;;;1.20;99.90;;;;;;5071128;28;20033;-69
2021/11/11 02:01:36;;;;;;;29.70;15.55;;;1.20;99.90;;;;;;5077661;28;20574;-69
2021/11/11 02:04:02;;;;;;;34.78;16.17;;;1.20;99.90;;;;;;5080497;28;20137;-68
2021/11/11 02:06:35;;;;;;;46.13;19.13;;;0.80;99.90;;;;;;5077602;28;20033;-68
2021/11/11 02:09:03;;;;;;;37.40;16.83;;;1.50;99.90;;;;;;5072185;28;20025;-69
2021/11/11 02:11:49;;;;;;;39.72;17.30;;;1.60;99.90;;;;;;5078063;28;20083;-69
2021/11/11 02:14:15;;;;;;;51.20;19.35;;;1.50;99.90;;;;;;5080325;28;20895;-69
2021/11/11 02:16:42;;;;;;;34.72;17.38;;;1.40;99.90;;;;;;5074701;28;20026;-69
2021/11/11 02:19:13;;;;;;;33.10;15.18;;;1.30;99.90;;;;;;5068252;28;20026;-69
2021/11/11 02:21:44;;;;;;;36.78;16.13;;;1.30;99.90;;;;;;5064715;28;20041;-69
2021/11/11 02:24:10;;;;;;;42.95;18.80;;;1.20;99.90;;;;;;5010675;28;20030;-69
2021/11/11 02:26:45;;;;;;;38.20;17.83;;;1.30;99.90;;;;;;5073128;28;20106;-69
2021/11/11 02:29:23;;;;;;;41.58;18.92;;;1.40;99.90;;;;;;5067580;28;20038;-69
2021/11/11 02:31:49;;;;;;;44.08;18.25;;;1.50;99.90;;;;;;5064406;28;20418;-69
2021/11/11 02:34:17;;;;;;;42.70;18.48;;;1.50;99.90;;;;;;5065092;28;20131;-69
2021/11/11 02:36:52;;;;;;;;;;;1.50;99.90;;;;;;5075002;28;20025;-69
2021/11/11 02:39:17;;;;;;;48.92;17.40;;;1.30;99.90;;;;;;5012068;28;19951;-69
2021/11/11 02:41:43;;;;;;;36.50;16.77;;;1.00;99.90;;;;;;5080056;28;20068;-69
2021/11/11 02:44:08;;;;;;;36.22;15.40;;;0.80;99.90;;;;;;5074978;28;20037;-69
2021/11/11 02:46:34;;;;;;;31.05;15.02;;;0.70;99.90;;;;;;5069660;28;20057;-69
2021/11/11 02:48:59;;;;;;;33.63;14.95;;;0.70;99.90;;;;;;5067078;28;20018;-69
2021/11/11 02:51:25;;;;;;;33.70;15.60;;;0.70;99.90;;;;;;5070428;28;20033;-69
2021/11/11 02:53:52;;;;;;;35.17;16.08;;;0.60;99.90;;;;;;5074937;28;20030;-69
2021/11/11 02:56:18;;;;;;;32.38;16.30;;;0.60;99.90;;;;;;5079349;28;20110;-69
2021/11/11 02:58:46;;;;;;;33.80;16.85;;;0.60;99.90;;;;;;5085832;28;20065;-69
2021/11/11 03:01:11;;;;;;;34.50;15.35;;;0.60;99.90;;;;;;5082048;28;20162;-69
2021/11/11 03:03:39;;;;;;;34.30;15.15;;;0.60;99.90;;;;;;5076955;28;20038;-69
2021/11/11 03:06:07;;;;;;;38.85;17.50;;;0.60;99.90;;;;;;5068407;28;20068;-69
2021/11/11 03:08:35;;;;;;;36.13;16.73;;;0.70;99.90;;;;;;5067238;28;20033;-69
2021/11/11 03:11:05;;;;;;;41.40;18.70;;;0.70;99.90;;;;;;5072445;28;20113;-69
2021/11/11 03:13:39;;;;;;;37.67;17.60;;;0.80;99.90;;;;;;5076875;28;20036;-69
2021/11/11 03:16:09;;;;;;;33.47;16.13;;;0.70;99.90;;;;;;5069066;28;20447;-69
2021/11/11 03:18:35;;;;;;;37.72;17.10;;;0.70;99.90;;;;;;5067800;28;20034;-69
2021/11/11 03:21:01;;;;;;;35.75;16.88;;;0.50;99.90;;;;;;5006800;28;20082;-69
2021/11/11 03:23:26;;;;;;;40.65;16.60;;;0.50;99.90;;;;;;5079885;28;20872;-69
2021/11/11 03:25:54;;;;;;;37.85;16.15;;;0.50;99.90;;;;;;5071188;28;20033;-69
2021/11/11 03:28:25;;;;;;;43.08;18.65;;;0.60;99.90;;;;;;5081600;28;20161;-69
2021/11/11 03:30:50;;;;;;;45.33;17.90;;;0.80;99.90;;;;;;5075513;28;20037;-69
2021/11/11 03:33:16;;;;;;;42.60;18.55;;;1.00;99.90;;;;;;5005030;28;20029;-69
2021/11/11 03:35:45;;;;;;;42.83;18.17;;;1.00;99.90;;;;;;5016479;28;20219;-68
2021/11/11 03:38:11;;;;;;;50.15;19.45;;;0.90;99.90;;;;;;5081221;28;20049;-68
2021/11/11 03:40:37;;;;;;;38.55;17.85;;;0.70;99.90;;;;;;5007299;28;20107;-68
2021/11/11 03:43:03;;;;;;;36.25;16.80;;;0.60;99.90;;;;;;5069236;28;20185;-68
2021/11/11 03:45:37;;;;;;;32.78;16.20;;;0.40;99.90;;;;;;5084137;28;20028;-68
2021/11/11 03:48:02;;;;;;;35.67;15.75;;;0.30;99.90;;;;;;5078000;28;20390;-68
2021/11/11 03:50:30;;;;;;;36.88;16.70;;;0.30;99.90;;;;;;5077250;28;20953;-68
2021/11/11 03:53:01;;;;;;;35.40;16.73;;;0.20;99.90;;;;;;5064986;28;20539;-68
2021/11/11 03:55:27;;;;;;;35.65;15.40;;;0.30;99.90;;;;;;5068894;28;20421;-68
2021/11/11 03:57:55;;;;;;;32.85;15.57;;;0.00;99.90;;;;;;5006747;28;20045;-69
2021/11/11 04:00:21;;;;;;;35.70;15.57;;;0.20;99.90;;;;;;5079414;28;20033;-69
2021/11/11 04:02:53;;;;;;;36.30;15.65;;;0.20;99.90;;;;;;5083794;28;20033;-68
2021/11/11 04:05:19;;;;;;;34.30;14.82;;;0.20;99.90;;;;;;5051185;28;20145;-69
2021/11/11 04:07:52;;;;;;;35.95;15.20;;;0.20;99.90;;;;;;5075362;28;20140;-69
2021/11/11 04:10:17;;;;;;;42.03;17.50;;;0.20;99.90;;;;;;5082045;28;20663;-69
2021/11/11 04:12:46;;;;;;;36.90;17.50;;;0.30;99.90;;;;;;5084490;28;20033;-69
2021/11/11 04:15:14;;;;;;;36.88;16.90;;;0.30;99.90;;;;;;5062562;28;20044;-69
2021/11/11 04:17:40;;;;;;;39.20;17.80;;;0.50;99.90;;;;;;5073542;28;20737;-69
2021/11/11 04:20:06;;;;;;;36.45;16.83;;;0.40;99.90;;;;;;5000658;28;20034;-69
2021/11/11 04:22:31;;;;;;;45.10;18.35;;;0.30;99.90;;;;;;5068788;28;20490;-69
2021/11/11 04:25:00;;;;;;;39.88;16.25;;;0.30;99.90;;;;;;5057158;28;20494;-69
2021/11/11 04:27:44;;;;;;;40.83;17.65;;;0.30;99.90;;;;;;5051183;28;20034;-69
2021/11/11 04:30:30;;;;;;;43.67;17.13;;;0.30;99.90;;;;;;5073821;28;20033;-69
2021/11/11 04:32:57;;;;;;;40.38;17.00;;;0.30;99.90;;;;;;5001241;28;20106;-69
2021/11/11 04:35:23;;;;;;;41.63;18.38;;;0.30;99.90;;;;;;5077108;28;20531;-69
2021/11/11 04:43:17;;;;;;;59.95;20.20;;;0.70;99.90;;;;;;5078516;28;20034;-69
2021/11/11 04:59:56;;;;;;;49.42;18.73;;;0.60;99.90;;;;;;5060638;28;20549;-70
2021/11/11 05:05:07;;;;;;;50.00;18.75;;;0.50;99.90;;;;;;5068003;28;20030;-69
2021/11/11 05:07:32;;;;;;;52.88;17.98;;;0.60;99.90;;;;;;4997925;28;20035;-70
2021/11/11 05:09:59;;;;;;;46.65;17.25;;;1.50;99.90;;;;;;5071901;28;20029;-69
2021/11/11 05:12:24;;;;;;;55.53;20.45;;;0.60;99.90;;;;;;5072480;28;20041;-69
2021/11/11 05:14:50;;;;;;;51.10;19.40;;;0.70;99.90;;;;;;5066795;28;20182;-69
2021/11/11 05:17:22;;;;;;;46.08;18.10;;;0.70;99.90;;;;;;5066160;28;20497;-69
2021/11/11 05:19:47;;;;;;;49.30;19.30;;;0.60;99.90;;;;;;5072542;28;20169;-69
2021/11/11 05:22:13;;;;;;;46.13;17.67;;;0.60;99.90;;;;;;5056013;28;20047;-69
2021/11/11 05:24:40;;;;;;;42.15;17.48;;;0.60;99.90;;;;;;5068875;28;20046;-69
2021/11/11 05:27:06;;;;;;;44.03;16.52;;;0.20;99.90;;;;;;5012307;28;20030;-70
2021/11/11 05:29:35;;;;;;;40.03;16.70;;;0.40;99.90;;;;;;5078048;28;20218;-69
2021/11/11 05:32:01;;;;;;;45.42;18.13;;;0.30;99.90;;;;;;5073800;28;20709;-69
2021/11/11 05:34:26;;;;;;;40.15;16.85;;;-0.30;99.90;;;;;;5054303;28;20033;-69
2021/11/11 05:36:52;;;;;;;43.05;18.00;;;0.20;99.90;;;;;;5079924;28;20041;-69
2021/11/11 05:39:18;;;;;;;42.75;17.98;;;0.10;99.90;;;;;;5076957;28;20034;-68
2021/11/11 05:41:44;;;;;;;42.78;17.80;;;0.10;99.90;;;;;;5081468;28;20037;-69
2021/11/11 05:44:09;;;;;;;35.67;16.10;;;0.10;99.90;;;;;;5076092;28;20038;-69
2021/11/11 05:46:38;;;;;;;45.95;18.63;;;0.00;99.90;;;;;;5079012;28;20545;-71
2021/11/11 05:49:03;;;;;;;58.67;22.83;;;0.10;99.90;;;;;;5077302;28;20033;-69
2021/11/11 05:51:28;;;;;;;48.28;20.73;;;-0.10;99.90;;;;;;5082482;28;20646;-69
2021/11/11 05:53:54;;;;;;;47.92;18.40;;;0.60;99.90;;;;;;5011989;28;20063;-69
2021/11/11 05:56:23;;;;;;;47.33;18.50;;;0.90;99.90;;;;;;5075521;28;20112;-70
2021/11/11 05:58:49;;;;;;;50.15;18.88;;;0.40;99.90;;;;;;5075302;28;20035;-69
2021/11/11 06:01:15;;;;;;;43.55;18.15;;;0.40;99.90;;;;;;5081554;28;20086;-69
2021/11/11 06:03:46;;;;;;;42.35;17.42;;;0.10;99.90;;;;;;5080583;28;20118;-69
2021/11/11 06:06:11;;;;;;;54.17;21.02;;;0.40;99.90;;;;;;5078712;28;20766;-62
2021/11/11 06:08:40;;;;;;;48.40;19.50;;;-0.40;99.90;;;;;;5075009;28;20034;-62
2021/11/11 06:11:06;;;;;;;45.80;18.27;;;0.20;99.90;;;;;;5079596;28;20033;-62
2021/11/11 06:13:32;;;;;;;42.08;17.88;;;0.00;99.90;;;;;;5079652;28;20037;-62
2021/11/11 06:15:58;;;;;;;43.67;18.65;;;;;;;;;;5078901;28;20025;-62
2021/11/11 06:18:23;;;;;;;48.90;19.20;;;-0.20;99.90;;;;;;5014836;28;20033;-62
2021/11/11 06:20:57;;;;;;;68.57;21.60;;;0.00;99.90;;;;;;5012379;28;20045;-62
2021/11/11 06:23:23;;;;;;;48.17;19.58;;;-0.10;99.90;;;;;;5081322;28;20742;-62
2021/11/11 06:25:49;;;;;;;66.13;22.33;;;0.00;99.90;;;;;;5083247;28;20038;-62
2021/11/11 06:28:15;;;;;;;61.33;21.38;;;0.30;99.90;;;;;;5082532;28;20033;-62
2021/11/11 06:30:40;;;;;;;45.13;18.17;;;0.10;99.90;;;;;;5080041;28;20568;-62
2021/11/11 06:33:12;;;;;;;50.97;19.23;;;;;;;;;;5079612;28;20040;-62
2021/11/11 06:35:40;;;;;;;47.13;18.80;;;;;;;;;;5062031;28;20576;-62
2021/11/11 06:38:06;;;;;;;48.13;18.67;;;0.60;99.90;;;;;;5014125;28;20029;-62
2021/11/11 06:40:31;;;;;;;54.78;21.20;;;0.60;99.90;;;;;;5008104;28;20478;-62
2021/11/11 06:42:57;;;;;;;61.20;21.33;;;0.60;99.90;;;;;;5078533;28;20459;-62
2021/11/11 06:45:22;;;;;;;57.40;22.30;;;0.40;99.90;;;;;;5014608;28;20087;-62
2021/11/11 06:47:48;;;;;;;56.28;21.15;;;0.80;99.90;;;;;;5013848;28;20124;-62
2021/11/11 06:50:13;;;;;;;67.88;23.45;;;0.80;99.90;;;;;;5008241;28;20090;-62
2021/11/11 06:52:39;;;;;;;63.53;23.92;;;;;;;;;;5011509;28;20029;-62
2021/11/11 06:55:05;;;;;;;56.13;22.42;;;1.00;99.90;;;;;;5011355;28;20044;-62
2021/11/11 06:57:30;;;;;;;54.22;22.17;;;0.90;99.90;;;;;;5008889;28;20034;-62
2021/11/11 07:00:02;;;;;;;53.40;21.77;;;0.90;99.90;;;;;;5079900;28;20094;-62
2021/11/11 07:02:28;;;;;;;51.35;21.25;;;0.80;99.90;;;;;;5078087;28;20122;-62
2021/11/11 07:04:54;;;;;;;53.47;20.75;;;0.90;99.90;;;;;;5072728;28;20040;-62
2021/11/11 07:07:20;;;;;;;49.00;20.40;;;0.90;99.90;;;;;;5082058;28;20029;-62
2021/11/11 07:09:46;;;;;;;52.40;20.33;;;;;;;;;;5012380;28;20033;-62
2021/11/11 07:12:11;;;;;;;48.95;19.10;;;;;;;;;;5015133;28;20766;-62
2021/11/11 07:14:41;;;;;;;41.03;17.75;;;;;;;;;;5012003;28;20595;-62
2021/11/11 07:17:06;;;;;;;45.95;18.95;;;0.60;99.90;;;;;;5008087;28;20033;-62
2021/11/11 07:19:33;;;;;;;51.38;19.70;;;0.60;99.90;;;;;;5078912;28;20413;-62
2021/11/11 07:21:59;;;;;;;52.45;21.08;;;;;;;;;;5013164;28;20038;-62
2021/11/11 07:24:25;;;;;;;55.20;20.40;;;3.40;99.90;;;;;;5006607;28;20049;-62
2021/11/11 07:26:50;;;;;;;57.42;22.33;;;0.90;99.90;;;;;;5009178;28;20034;-63
2021/11/11 07:29:16;;;;;;;75.82;23.33;;;1.00;99.90;;;;;;5011884;28;20030;-62
2021/11/11 07:31:43;;;;;;;80.60;24.85;;;1.10;99.90;;;;;;5077195;28;20491;-62
2021/11/11 07:34:09;;;;;;;69.72;25.30;;;1.40;99.90;;;;;;5015198;28;20018;-62
2021/11/11 07:36:37;;;;;;;93.93;27.13;;;1.50;99.90;;;;;;5082037;28;20066;-62
2021/11/11 07:39:02;;;;;;;80.30;26.25;;;1.60;99.90;;;;;;5009075;28;20048;-62
2021/11/11 07:41:28;;;;;;;80.85;26.45;;;1.80;99.90;;;;;;5011180;28;20046;-62
2021/11/11 07:43:54;;;;;;;86.10;25.90;;;2.00;99.90;;;;;;5008106;28;20044;-62
2021/11/11 07:46:20;;;;;;;64.07;23.40;;;2.10;99.90;;;;;;5081324;28;20045;-62
2021/11/11 07:48:46;;;;;;;72.90;23.13;;;2.20;99.90;;;;;;5082165;28;20041;-63
2021/11/11 07:51:11;;;;;;;74.82;23.48;;;2.20;99.90;;;;;;5059235;28;20026;-62
2021/11/11 07:53:37;;;;;;;98.05;27.75;;;2.30;99.90;;;;;;5012238;28;20037;-62
2021/11/11 07:56:02;;;;;;;96.15;28.67;;;2.40;99.90;;;;;;5011080;28;20065;-62
2021/11/11 07:58:29;;;;;;;83.68;27.35;;;2.40;99.90;;;;;;5012584;28;20056;-62
2021/11/11 08:00:55;;;;;;;125.68;22.98;;;2.50;99.90;;;;;;5016580;28;20378;-63
2021/11/11 08:03:23;;;;;;;55.65;30.15;;;2.50;99.90;;;;;;5079432;28;20098;-63
2021/11/11 08:05:49;;;;;;;61.60;28.83;;;2.50;99.90;;;;;;5064351;28;20041;-62
2021/11/11 08:08:15;;;;;;;54.35;23.77;;;2.60;99.90;;;;;;5013934;28;20045;-63
2021/11/11 08:10:40;;;;;;;48.33;21.15;;;2.80;99.90;;;;;;5023113;28;20029;-62
2021/11/11 08:13:06;;;;;;;84.60;25.25;;;2.80;99.90;;;;;;5004687;28;20120;-62
2021/11/11 08:15:32;;;;;;;100.03;28.15;;;2.90;99.90;;;;;;5010595;28;20762;-63
2021/11/11 08:17:58;;;;;;;89.03;23.15;;;3.00;99.90;;;;;;5068511;28;20117;-62
2021/11/11 08:20:24;;;;;;;49.40;19.38;;;2.10;99.90;;;;;;5007515;28;20045;-63
2021/11/11 08:22:49;;;;;;;137.65;24.15;;;3.10;99.90;;;;;;5082259;28;20021;-63
2021/11/11 08:25:15;;;;;;;45.92;20.35;;;2.30;99.90;;;;;;5007066;28;20041;-62
2021/11/11 08:27:40;;;;;;;46.80;19.65;;;3.40;99.90;;;;;;5016972;28;20041;-62
2021/11/11 08:30:06;;;;;;;71.85;24.77;;;4.00;99.90;;;;;;5011761;28;20037;-62
2021/11/11 08:32:31;;;;;;;131.15;21.33;;;3.50;99.90;;;;;;5011281;28;20453;-62
2021/11/11 08:34:57;;;;;;;223.93;16.42;;;3.60;99.90;;;;;;5014168;28;20584;-62
2021/11/11 08:37:23;;;;;;;38.33;14.23;;;3.70;99.90;;;;;;5019241;28;20034;-62
2021/11/11 08:39:48;;;;;;;80.88;19.02;;;3.80;99.90;;;;;;5008844;28;20517;-62
2021/11/11 08:42:14;;;;;;;80.18;18.73;;;3.80;99.90;;;;;;5010301;28;20033;-62
2021/11/11 08:44:42;;;;;;;101.68;21.75;;;3.90;99.90;;;;;;5004362;28;20433;-63
2021/11/11 08:47:08;;;;;;;48.47;18.23;;;4.00;99.90;;;;;;5073166;28;20102;-62
2021/11/11 08:49:34;;;;;;;51.95;21.48;;;4.00;99.90;;;;;;5079386;28;20132;-62
2021/11/11 08:52:00;;;;;;;47.10;20.95;;;4.10;99.90;;;;;;5080310;28;20132;-61
2021/11/11 08:54:25;;;;;;;39.85;17.40;;;4.20;99.90;;;;;;5017097;28;20038;-61
2021/11/11 08:56:51;;;;;;;68.93;18.02;;;4.20;99.90;;;;;;5011245;28;20034;-64
2021/11/11 08:59:16;;;;;;;61.53;18.52;;;4.10;99.90;;;;;;5010804;28;20557;-62
2021/11/11 09:01:42;;;;;;;37.40;16.40;;;4.20;99.90;;;;;;5080869;28;20533;-62
2021/11/11 09:04:08;;;;;;;78.43;18.95;;;4.30;99.90;;;;;;5013541;28;20556;-61
2021/11/11 09:06:33;;;;;;;50.30;19.55;;;4.40;99.90;;;;;;5076697;28;20128;-62
2021/11/11 09:09:00;;;;;;;38.95;18.27;;;4.60;99.90;;;;;;5012471;28;20523;-62
2021/11/11 09:11:25;;;;;;;39.97;19.33;;;4.80;99.90;;;;;;5009403;28;20025;-62
2021/11/11 09:13:51;;;;;;;43.10;19.67;;;4.90;99.90;;;;;;5076600;28;20029;-61
2021/11/11 09:16:17;;;;;;;33.28;17.98;;;4.90;99.90;;;;;;5009987;28;20026;-61
2021/11/11 09:18:42;;;;;;;47.70;21.00;;;4.90;99.90;;;;;;5010809;28;20030;-61
2021/11/11 09:21:08;;;;;;;46.67;22.02;;;5.00;99.90;;;;;;5014922;28;20516;-61
2021/11/11 09:23:33;;;;;;;44.50;21.40;;;5.10;99.90;;;;;;5002923;28;20722;-61
2021/11/11 09:26:00;;;;;;;44.13;20.90;;;5.30;99.90;;;;;;4999257;28;20128;-61
2021/11/11 09:28:25;;;;;;;43.85;21.88;;;5.40;99.90;;;;;;5010486;28;20502;-62
2021/11/11 09:30:51;;;;;;;45.13;20.83;;;5.40;99.90;;;;;;5002104;28;20087;-62
2021/11/11 09:33:16;;;;;;;49.90;21.48;;;5.60;99.90;;;;;;5012033;28;20034;-62
2021/11/11 09:35:42;;;;;;;47.75;22.33;;;5.60;99.90;;;;;;5010218;28;20037;-62
2021/11/11 09:38:07;;;;;;;45.10;22.52;;;5.40;99.90;;;;;;5013606;28;20041;-62
2021/11/11 09:40:33;;;;;;;45.38;21.85;;;5.30;99.90;;;;;;5013162;28;20045;-62
2021/11/11 09:42:59;;;;;;;45.33;22.20;;;5.40;99.90;;;;;;5060507;28;20132;-62
2021/11/11 09:45:25;;;;;;;45.85;23.35;;;5.50;99.90;;;;;;5006059;28;20128;-62
2021/11/11 09:47:50;;;;;;;45.17;23.55;;;5.40;99.90;;;;;;4998541;28;20034;-62
2021/11/11 09:50:16;;;;;;;48.33;24.15;;;5.50;99.90;;;;;;5002967;28;20746;-62
2021/11/11 09:52:42;;;;;;;46.80;22.75;;;5.60;99.90;;;;;;5007926;28;20074;-62
2021/11/11 10:00:36;;;;;;;40.60;22.85;;;5.90;99.90;;;;;;5010615;28;20045;-61
2021/11/11 10:03:02;;;;;;;47.25;24.67;;;6.00;99.90;;;;;;5010191;28;20041;-61
2021/11/11 10:05:27;;;;;;;47.08;24.27;;;6.10;99.90;;;;;;5009703;28;20140;-61
2021/11/11 10:07:53;;;;;;;46.38;24.15;;;6.20;99.90;;;;;;5007919;28;20037;-62
2021/11/11 10:10:19;;;;;;;46.35;23.95;;;6.20;99.90;;;;;;5007769;28;20034;-61
2021/11/11 10:12:44;;;;;;;39.60;22.00;;;6.10;99.90;;;;;;5009825;28;20037;-61
2021/11/11 10:15:10;;;;;;;44.70;19.45;;;6.20;99.90;;;;;;5009784;28;20396;-61
2021/11/11 10:17:35;;;;;;;39.00;19.75;;;6.40;99.90;;;;;;5013846;28;20133;-61
2021/11/11 10:20:00;;;;;;;42.72;22.10;;;6.30;99.90;;;;;;5078292;28;20521;-61
2021/11/11 10:22:32;;;;;;;46.30;23.40;;;6.20;99.90;;;;;;5010215;28;20046;-61
2021/11/11 10:25:01;;;;;;;44.33;19.15;;;6.10;99.90;;;;;;5078367;28;20038;-61
2021/11/11 10:27:37;;;;;;;44.05;19.27;;;6.00;99.90;;;;;;5004593;28;20735;-61
2021/11/11 10:30:04;;;;;;;50.53;20.52;;;6.00;99.90;;;;;;5009491;28;20718;-62
2021/11/11 10:32:30;;;;;;;52.97;19.65;;;5.00;99.90;;;;;;5007079;28;20396;-62
2021/11/11 10:34:55;;;;;;;49.60;21.52;;;6.10;99.90;;;;;;5005356;28;20042;-61
2021/11/11 10:37:21;;;;;;;46.50;19.00;;;6.10;99.90;;;;;;4997211;28;20033;-61
2021/11/11 10:39:46;;;;;;;54.47;22.80;;;6.20;99.90;;;;;;5078143;28;20042;-61
2021/11/11 10:42:12;;;;;;;58.30;27.92;;;6.30;99.90;;;;;;5006056;28;20037;-61
2021/11/11 10:44:38;;;;;;;55.30;22.52;;;6.40;99.90;;;;;;5012927;28;20141;-61
2021/11/11 10:47:03;;;;;;;56.80;24.15;;;6.50;99.90;;;;;;5007554;28;20034;-62
2021/11/11 10:49:29;;;;;;;45.63;18.08;;;6.60;99.90;;;;;;5009731;28;20029;-61
2021/11/11 10:51:54;;;;;;;54.10;25.83;;;6.70;99.90;;;;;;4995722;28;20391;-61
2021/11/11 10:54:20;;;;;;;50.75;21.90;;;6.70;99.90;;;;;;4991467;28;20041;-61
2021/11/11 10:56:45;;;;;;;36.50;15.55;;;7.00;99.90;;;;;;5002612;28;20037;-61
2021/11/11 10:59:11;;;;;;;36.03;15.70;;;6.60;99.90;;;;;;5001208;28;20792;-62
2021/11/11 11:01:36;;;;;;;43.97;23.30;;;7.30;99.90;;;;;;5010495;28;20034;-61
2021/11/11 11:04:04;;;;;;;37.50;18.40;;;7.50;99.90;;;;;;4997308;28;20552;-62
2021/11/11 11:06:31;;;;;;;39.67;17.73;;;7.80;99.90;;;;;;5006199;28;20055;-61
2021/11/11 11:08:59;;;;;;;32.78;15.30;;;7.90;99.90;;;;;;5011422;28;20041;-61
2021/11/11 11:11:25;;;;;;;37.42;15.45;;;8.00;99.90;;;;;;5001918;28;20506;-62
2021/11/11 11:13:50;;;;;;;29.90;14.55;;;8.20;99.90;;;;;;5079821;28;20037;-62
2021/11/11 11:16:16;;;;;;;29.70;14.60;;;8.50;99.90;;;;;;5011949;28;20030;-61
2021/11/11 11:18:42;;;;;;;27.55;14.70;;;8.80;99.90;;;;;;5079511;28;20090;-62
2021/11/11 11:21:08;;;;;;;27.67;14.48;;;9.20;99.90;;;;;;5005146;28;20034;-62
2021/11/11 11:23:34;;;;;;;28.98;14.82;;;9.60;99.90;;;;;;5013094;28;20123;-62
2021/11/11 11:25:59;;;;;;;28.30;15.48;;;9.80;99.90;;;;;;5079844;28;20053;-62
2021/11/11 11:28:26;;;;;;;33.50;16.00;;;10.00;99.90;;;;;;5013672;28;20493;-62
2021/11/11 11:30:53;;;;;;;27.65;15.23;;;9.90;99.90;;;;;;5009724;28;20039;-62
2021/11/11 11:33:30;;;;;;;33.38;17.55;;;10.00;99.90;;;;;;5014354;28;20049;-62
2021/11/11 11:35:56;;;;;;;37.17;15.85;;;10.20;99.90;;;;;;5006192;28;20075;-61
2021/11/11 11:38:21;;;;;;;30.02;15.65;;;10.40;99.90;;;;;;5008441;28;20042;-62
2021/11/11 11:40:47;;;;;;;31.23;15.30;;;10.60;99.90;;;;;;5016881;28;20033;-62
2021/11/11 11:43:12;;;;;;;33.22;17.50;;;10.60;99.90;;;;;;5011504;28;20716;-62
2021/11/11 11:45:37;;;;;;;34.22;17.10;;;10.60;99.90;;;;;;5077137;28;20505;-62
2021/11/11 11:48:17;;;;;;;34.33;16.60;;;10.50;99.90;;;;;;5000762;28;20114;-61
2021/11/11 11:50:49;;;;;;;36.08;16.60;;;10.60;99.90;;;;;;5009455;28;20036;-62
2021/11/11 11:53:17;;;;;;;31.88;17.13;;;10.50;99.90;;;;;;5005755;28;20500;-62
2021/11/11 11:55:50;;;;;;;35.25;16.67;;;10.40;99.90;;;;;;5007708;28;20081;-62
2021/11/11 12:16:59;;;;;;;37.00;16.00;;;10.60;99.90;;;;;;5005700;28;20120;-61
2021/11/11 12:38:45;;;;;;;39.47;15.15;;;10.50;99.90;;;;;;5012222;28;20044;-61
2021/11/11 12:41:11;;;;;;;29.77;15.55;;;10.30;99.90;;;;;;5005872;28;20038;-61
2021/11/11 12:43:36;;;;;;;28.15;14.80;;;10.30;99.90;;;;;;5002744;28;20038;-62
2021/11/11 12:46:03;;;;;;;33.17;15.43;;;10.20;99.90;;;;;;5006056;28;20037;-61
2021/11/11 12:48:30;;;;;;;31.17;14.30;;;10.30;99.90;;;;;;5007170;28;20041;-61
2021/11/11 12:50:57;;;;;;;28.27;14.52;;;10.30;99.90;;;;;;5007429;28;20033;-62
2021/11/11 12:53:22;;;;;;;28.85;13.13;;;10.30;99.90;;;;;;5082927;28;20084;-61
2021/11/11 12:55:48;;;;;;;29.13;13.52;;;10.40;99.90;;;;;;5010852;28;20481;-68
2021/11/11 12:58:14;;;;;;;25.20;12.80;;;10.40;99.90;;;;;;5006648;28;20042;-68
2021/11/11 13:00:40;;;;;;;26.20;14.10;;;10.30;99.90;;;;;;5007025;28;20482;-68
2021/11/11 13:03:06;;;;;;;27.23;14.50;;;10.40;99.90;;;;;;5004239;28;20048;-68
2021/11/11 13:05:32;;;;;;;28.77;15.27;;;10.50;99.90;;;;;;5008888;28;20052;-68
2021/11/11 13:07:57;;;;;;;24.83;13.57;;;10.50;99.90;;;;;;5007955;28;20034;-68
2021/11/11 13:10:25;;;;;;;30.02;13.10;;;10.30;99.90;;;;;;5007465;28;20075;-68
2021/11/11 13:12:50;;;;;;;30.88;14.77;;;10.00;99.90;;;;;;5013686;28;20033;-68
2021/11/11 13:15:16;;;;;;;32.38;15.57;;;9.90;99.90;;;;;;5008610;28;20083;-68
2021/11/11 13:17:42;;;;;;;25.50;14.43;;;9.90;99.90;;;;;;5008875;28;20025;-67
2021/11/11 13:20:08;;;;;;;23.92;13.18;;;9.90;99.90;;;;;;5013222;28;20073;-67
2021/11/11 13:23:01;;;;;;;27.65;14.75;;;9.80;99.90;;;;;;5006521;28;20177;-67
2021/11/11 14:03:29;;;;;;;31.45;16.23;;;8.90;99.90;;;;;;5006254;28;20029;-69
2021/11/11 15:15:12;;;;;;;37.35;16.95;;;;;;;;;;5008169;28;20030;-69
2021/11/11 15:20:08;;;;;;;42.90;17.80;;;;;;;;;;5002998;28;20041;-69
2021/11/11 16:01:22;;;;;;;33.85;16.17;;;7.90;99.90;;;;;;5015742;28;20070;-69
2021/11/11 16:25:39;;;;;;;31.20;15.27;;;7.90;99.90;;;;;;5006801;28;20030;-69
2021/11/11 16:27:45;;;;;;;31.17;15.30;;;;;;;;;;5015999;28;20111;-69
2021/11/11 16:30:11;;;;;;;34.17;16.13;;;;;;;;;;5002347;28;20056;-69
2021/11/11 16:32:37;;;;;;;27.55;14.57;;;;;;;;;;4998246;28;20030;-69
2021/11/11 16:35:02;;;;;;;37.83;16.30;;;8.00;99.90;;;;;;4999522;28;20030;-69
2021/11/11 16:37:29;;;;;;;43.85;19.90;;;;;;;;;;5005361;28;20383;-69